createdAt,value
2022-09-30T00:00:39.437Z,11.47
2022-09-30T00:03:27.951Z,10.73
2022-09-30T00:06:15.442Z,11.07
2022-09-30T00:09:03.450Z,10.13
2022-09-30T00:11:51.683Z,11.47
2022-09-30T00:14:39.638Z,10.50
2022-09-30T00:17:28.228Z,9.60
2022-09-30T00:20:16.106Z,10.33
2022-09-30T00:23:03.346Z,11.23
2022-09-30T00:25:51.799Z,9.50
2022-09-30T00:28:39.446Z,8.53
2022-09-30T00:31:29.061Z,9.70
2022-09-30T00:34:17.383Z,9.87
2022-09-30T00:37:04.828Z,9.53
2022-09-30T00:39:54.808Z,9.10
2022-09-30T00:42:42.232Z,9.30
2022-09-30T00:45:32.927Z,8.97
2022-09-30T00:48:21.875Z,10.07
2022-09-30T00:51:09.799Z,9.63
2022-09-30T00:53:59.785Z,9.77
2022-09-30T00:56:49.323Z,9.33
2022-09-30T00:59:42.710Z,9.80
2022-09-30T01:02:30.681Z,8.83
2022-09-30T01:05:18.147Z,9.27
2022-09-30T01:08:07.645Z,10.57
2022-09-30T01:10:54.972Z,10.03
2022-09-30T01:13:43.558Z,8.70
2022-09-30T01:16:49.461Z,9.67
2022-09-30T01:19:57.835Z,10.00
2022-09-30T01:22:48.386Z,9.37
2022-09-30T01:25:54.394Z,9.93
2022-09-30T01:29:08.624Z,10.20
2022-09-30T01:32:07.403Z,9.00
2022-09-30T01:35:13.763Z,9.90
2022-09-30T01:38:02.110Z,9.63
2022-09-30T01:40:49.745Z,9.10
2022-09-30T01:43:49.733Z,9.93
2022-09-30T01:46:37.284Z,9.83
2022-09-30T01:49:31.926Z,10.07
2022-09-30T01:52:23.406Z,9.30
2022-09-30T01:55:11.201Z,8.50
2022-09-30T01:58:10.916Z,9.53
2022-09-30T02:01:01.916Z,8.83
2022-09-30T02:03:52.612Z,8.47
2022-09-30T02:06:42.942Z,8.70
2022-09-30T02:09:34.407Z,8.70
2022-09-30T02:12:23.808Z,9.23
2022-09-30T02:15:13.604Z,8.37
2022-09-30T02:18:04.363Z,8.73
2022-09-30T02:20:55.725Z,8.77
2022-09-30T02:23:45.274Z,8.77
2022-09-30T02:26:35.778Z,8.50
2022-09-30T02:29:27.712Z,8.20
2022-09-30T02:32:30.742Z,8.30
2022-09-30T02:35:24.366Z,9.03
2022-09-30T02:38:24.776Z,8.23
2022-09-30T02:41:13.940Z,8.63
2022-09-30T02:44:03.198Z,7.37
2022-09-30T02:47:11.262Z,8.73
2022-09-30T02:50:07.063Z,7.53
2022-09-30T02:53:15.121Z,8.30
2022-09-30T02:56:08.231Z,8.27
2022-09-30T02:58:57.222Z,9.00
2022-09-30T03:01:45.522Z,7.70
2022-09-30T03:07:41.528Z,9.03
2022-09-30T03:10:30.385Z,7.83
2022-09-30T03:13:35.801Z,8.50
2022-09-30T03:16:26.179Z,9.37
2022-09-30T03:19:25.728Z,9.17
2022-09-30T03:22:18.678Z,9.07
2022-09-30T03:25:19.935Z,9.37
2022-09-30T03:28:24.039Z,8.97
2022-09-30T03:31:14.783Z,9.23
2022-09-30T03:34:11.221Z,8.43
2022-09-30T03:37:09.097Z,10.23
2022-09-30T03:40:18.051Z,8.10
2022-09-30T03:43:26.084Z,9.07
2022-09-30T03:46:28.365Z,9.73
2022-09-30T03:49:20.613Z,9.00
2022-09-30T03:52:09.545Z,10.13
2022-09-30T03:54:59.120Z,10.27
2022-09-30T03:57:46.860Z,10.10
2022-09-30T04:00:34.519Z,11.17
2022-09-30T04:07:19.033Z,10.03
2022-09-30T04:10:10.032Z,9.13
2022-09-30T04:12:57.825Z,9.57
2022-09-30T04:15:45.445Z,10.00
2022-09-30T04:18:32.737Z,10.43
2022-09-30T04:21:38.426Z,10.67
2022-09-30T04:24:31.811Z,10.63
2022-09-30T04:27:29.602Z,9.63
2022-09-30T04:30:20.256Z,10.30
2022-09-30T04:33:13.242Z,9.67
2022-09-30T04:36:01.184Z,9.33
2022-09-30T04:38:53.870Z,9.80
2022-09-30T04:41:44.169Z,9.43
2022-09-30T04:44:32.127Z,11.87
2022-09-30T04:47:20.162Z,10.13
2022-09-30T04:50:11.118Z,9.47
2022-09-30T04:53:03.815Z,9.93
2022-09-30T04:55:51.442Z,10.57
2022-09-30T04:58:38.928Z,10.10
2022-09-30T05:01:26.857Z,10.90
2022-09-30T05:04:18.548Z,9.97
2022-09-30T05:07:09.031Z,10.30
2022-09-30T05:09:56.569Z,10.20
2022-09-30T05:12:45.899Z,10.20
2022-09-30T05:15:35.686Z,11.53
2022-09-30T05:18:25.593Z,12.40
2022-09-30T05:21:14.546Z,11.07
2022-09-30T05:24:02.524Z,10.33
2022-09-30T05:26:49.865Z,10.47
2022-09-30T05:29:37.746Z,10.33
2022-09-30T05:32:25.306Z,9.83
2022-09-30T05:35:13.234Z,10.03
2022-09-30T05:38:01.529Z,9.80
2022-09-30T05:40:49.493Z,10.17
2022-09-30T05:43:38.168Z,9.03
2022-09-30T05:46:26.096Z,9.53
2022-09-30T05:49:14.072Z,10.43
2022-09-30T05:52:01.573Z,10.07
2022-09-30T05:54:50.836Z,9.57
2022-09-30T05:57:39.549Z,10.93
2022-09-30T06:00:27.032Z,10.73
2022-09-30T06:03:15.293Z,10.20
2022-09-30T06:06:02.890Z,10.77
2022-09-30T06:08:50.387Z,11.17
2022-09-30T06:11:37.845Z,10.00
2022-09-30T06:14:25.844Z,10.80
2022-09-30T06:17:13.810Z,10.20
2022-09-30T06:20:01.338Z,9.93
2022-09-30T06:22:49.049Z,10.20
2022-09-30T06:25:36.922Z,9.40
2022-09-30T06:28:24.619Z,10.73
2022-09-30T06:31:13.067Z,10.00
2022-09-30T06:34:01.720Z,10.73
2022-09-30T06:36:49.620Z,10.67
2022-09-30T06:39:37.048Z,8.57
2022-09-30T06:42:25.436Z,9.83
2022-09-30T06:45:23.772Z,10.07
2022-09-30T06:48:29.089Z,9.67
2022-09-30T06:51:21.238Z,9.47
2022-09-30T06:54:09.195Z,8.40
2022-09-30T06:56:57.874Z,8.17
2022-09-30T06:59:45.818Z,8.53
2022-09-30T07:02:34.976Z,8.25
2022-09-30T07:05:22.949Z,8.02
2022-09-30T07:08:11.055Z,8.00
2022-09-30T07:11:04.157Z,7.30
2022-09-30T07:13:52.074Z,7.57
2022-09-30T07:16:39.643Z,7.20
2022-09-30T07:19:27.502Z,8.02
2022-09-30T07:22:30.234Z,7.57
2022-09-30T07:25:18.445Z,7.57
2022-09-30T07:28:06.322Z,7.25
2022-09-30T07:31:08.073Z,5.85
2022-09-30T07:34:07.174Z,6.18
2022-09-30T07:36:54.757Z,5.78
2022-09-30T07:39:44.448Z,6.53
2022-09-30T07:42:32.089Z,5.35
2022-09-30T07:45:20.043Z,6.00
2022-09-30T07:48:27.462Z,4.40
2022-09-30T07:51:35.782Z,4.38
2022-09-30T07:54:24.380Z,4.40
2022-09-30T07:57:12.424Z,5.53
2022-09-30T08:00:11.795Z,4.50
2022-09-30T08:03:07.569Z,4.00
2022-09-30T08:05:54.829Z,3.92
2022-09-30T08:08:44.347Z,4.20
2022-09-30T08:11:34.910Z,4.07
2022-09-30T08:14:23.561Z,3.53
2022-09-30T08:17:11.090Z,3.50
2022-09-30T08:19:58.969Z,2.95
2022-09-30T08:22:46.833Z,3.22
2022-09-30T08:25:34.801Z,2.15
2022-09-30T08:28:22.746Z,1.83
2022-09-30T08:31:14.922Z,1.92
2022-09-30T08:34:03.721Z,1.92
2022-09-30T08:36:50.974Z,1.65
2022-09-30T08:39:39.582Z,2.10
2022-09-30T08:42:42.616Z,1.92
2022-09-30T08:45:45.558Z,1.80
2022-09-30T08:49:02.722Z,1.80
2022-09-30T08:51:51.981Z,1.83
2022-09-30T08:54:41.834Z,2.05
2022-09-30T08:57:31.618Z,2.08
2022-09-30T09:00:19.989Z,2.15
2022-09-30T09:03:07.496Z,1.50
2022-09-30T09:06:05.983Z,1.80
2022-09-30T09:09:12.836Z,1.50
2022-09-30T09:12:06.278Z,2.13
2022-09-30T09:14:59.450Z,1.50
2022-09-30T09:18:22.618Z,2.20
2022-09-30T09:21:23.590Z,1.30
2022-09-30T09:24:20.102Z,2.00
2022-09-30T09:27:19.869Z,1.80
2022-09-30T09:30:08.773Z,1.40
2022-09-30T09:33:01.993Z,1.55
2022-09-30T09:35:55.591Z,1.70
2022-09-30T09:38:49.219Z,1.50
2022-09-30T09:41:36.877Z,1.73
2022-09-30T09:44:44.034Z,1.65
2022-09-30T09:47:32.170Z,1.80
2022-09-30T09:50:27.081Z,2.35
2022-09-30T09:53:30.676Z,1.98
2022-09-30T09:56:20.380Z,2.13
2022-09-30T09:59:19.865Z,1.50
2022-09-30T10:02:24.122Z,1.85
2022-09-30T10:05:26.703Z,1.52
2022-09-30T10:08:14.103Z,1.27
2022-09-30T10:11:03.959Z,1.27
2022-09-30T10:13:56.802Z,1.30
2022-09-30T10:16:45.220Z,1.08
2022-09-30T10:19:34.504Z,1.20
2022-09-30T10:22:28.084Z,1.08
2022-09-30T10:25:15.917Z,0.90
2022-09-30T10:28:04.624Z,0.90
2022-09-30T10:30:55.808Z,0.90
2022-09-30T10:33:52.736Z,0.98
2022-09-30T10:36:41.504Z,0.93
2022-09-30T10:39:31.338Z,1.10
2022-09-30T10:42:26.518Z,1.00
2022-09-30T10:45:21.611Z,1.00
2022-09-30T10:48:17.522Z,1.00
2022-09-30T10:51:06.134Z,0.80
2022-09-30T10:53:54.474Z,0.70
2022-09-30T10:56:44.737Z,1.10
2022-09-30T10:59:39.019Z,0.98
2022-09-30T11:02:38.852Z,0.90
2022-09-30T11:05:37.112Z,0.98
2022-09-30T11:08:34.268Z,1.02
2022-09-30T11:11:24.994Z,0.93
2022-09-30T11:14:12.422Z,0.95
2022-09-30T11:17:24.001Z,0.77
2022-09-30T11:20:22.724Z,0.63
2022-09-30T11:23:19.721Z,0.60
2022-09-30T11:26:33.395Z,0.70
2022-09-30T11:29:20.784Z,0.80
2022-09-30T11:32:14.221Z,0.60
2022-09-30T11:35:04.660Z,0.90
2022-09-30T11:38:13.572Z,0.90
2022-09-30T11:41:03.546Z,0.77
2022-09-30T11:43:54.456Z,0.70
2022-09-30T11:46:41.761Z,0.98
2022-09-30T11:49:39.868Z,0.70
2022-09-30T11:52:46.112Z,0.80
2022-09-30T11:55:44.459Z,1.00
2022-09-30T11:58:41.434Z,1.00
2022-09-30T12:01:35.943Z,1.10
2022-09-30T12:04:29.503Z,1.20
2022-09-30T12:07:22.458Z,1.55
2022-09-30T12:10:21.390Z,1.45
2022-09-30T12:13:12.924Z,1.02
2022-09-30T12:16:01.847Z,1.38
2022-09-30T12:18:52.021Z,1.10
2022-09-30T12:21:54.706Z,1.10
2022-09-30T12:24:44.032Z,0.90
2022-09-30T12:27:39.476Z,1.00
2022-09-30T12:30:28.960Z,0.90
2022-09-30T12:33:30.189Z,0.95
2022-09-30T12:36:30.232Z,1.40
2022-09-30T12:39:30.181Z,1.20
2022-09-30T12:42:18.106Z,1.42
2022-09-30T12:45:23.519Z,1.00
2022-09-30T12:48:17.366Z,0.93
2022-09-30T12:51:06.011Z,1.50
2022-09-30T12:53:58.580Z,1.10
2022-09-30T12:56:47.204Z,1.30
2022-09-30T12:59:36.581Z,1.20
2022-09-30T13:02:44.125Z,0.98
2022-09-30T13:05:31.597Z,1.10
2022-09-30T13:08:24.282Z,1.30
2022-09-30T13:11:31.775Z,1.40
2022-09-30T13:14:28.583Z,1.30
2022-09-30T13:17:19.581Z,1.23
2022-09-30T13:20:27.023Z,1.25
2022-09-30T13:23:34.396Z,1.25
2022-09-30T13:26:25.065Z,1.10
2022-09-30T13:29:16.246Z,1.20
2022-09-30T13:32:04.292Z,1.10
2022-09-30T13:34:56.489Z,1.10
2022-09-30T13:37:43.885Z,1.02
2022-09-30T13:40:57.220Z,1.20
2022-09-30T13:43:43.370Z,0.90
2022-09-30T13:46:35.509Z,1.10
2022-09-30T13:49:35.243Z,0.95
2022-09-30T13:52:44.778Z,1.30
2022-09-30T13:55:35.388Z,1.15
2022-09-30T13:58:35.387Z,1.15
2022-09-30T14:01:35.555Z,1.05
2022-09-30T14:04:32.084Z,1.25
2022-09-30T14:07:19.833Z,1.20
2022-09-30T14:10:16.547Z,0.98
2022-09-30T14:13:03.998Z,1.13
2022-09-30T14:16:02.195Z,1.40
2022-09-30T14:19:08.273Z,1.20
2022-09-30T14:22:03.743Z,1.02
2022-09-30T14:24:51.347Z,1.10
2022-09-30T14:27:42.239Z,1.25
2022-09-30T14:30:32.251Z,1.20
2022-09-30T14:33:24.509Z,0.90
2022-09-30T14:36:14.529Z,1.23
2022-09-30T14:39:03.228Z,1.27
2022-09-30T14:41:57.002Z,1.20
2022-09-30T14:44:44.448Z,1.10
2022-09-30T14:47:33.514Z,1.30
2022-09-30T14:50:24.296Z,1.10
2022-09-30T14:53:32.023Z,1.25
2022-09-30T14:56:23.811Z,1.50
2022-09-30T14:59:18.048Z,0.98
2022-09-30T15:02:13.915Z,1.20
2022-09-30T15:05:05.038Z,1.13
2022-09-30T15:07:52.392Z,1.38
2022-09-30T15:10:47.061Z,1.20
2022-09-30T15:13:36.058Z,1.23
2022-09-30T15:16:27.244Z,1.23
2022-09-30T15:19:25.060Z,1.23
2022-09-30T15:22:13.586Z,1.30
2022-09-30T15:25:01.451Z,1.10
2022-09-30T15:27:50.530Z,1.20
2022-09-30T15:30:38.354Z,1.30
2022-09-30T15:33:31.783Z,1.40
2022-09-30T15:36:19.991Z,1.02
2022-09-30T15:39:16.568Z,1.30
2022-09-30T15:42:04.711Z,1.70
2022-09-30T15:44:52.540Z,2.28
2022-09-30T15:47:54.411Z,1.70
2022-09-30T15:50:46.337Z,1.70
2022-09-30T15:53:36.833Z,1.40
2022-09-30T15:56:36.626Z,1.38
2022-09-30T16:00:06.466Z,0.98
2022-09-30T16:06:46.315Z,1.48
2022-09-30T16:09:38.643Z,1.45
2022-09-30T16:12:34.049Z,1.30
2022-09-30T16:15:21.305Z,1.55
2022-09-30T16:18:25.387Z,1.20
2022-09-30T16:21:28.387Z,1.75
2022-09-30T16:24:28.791Z,1.60
2022-09-30T16:27:31.187Z,1.85
2022-09-30T16:30:19.810Z,1.40
2022-09-30T16:33:07.351Z,1.60
2022-09-30T16:35:55.287Z,1.90
2022-09-30T16:38:42.632Z,1.70
2022-09-30T16:41:30.462Z,1.60
2022-09-30T16:44:17.666Z,1.70
2022-09-30T16:47:05.499Z,1.52
2022-09-30T16:49:53.254Z,2.20
2022-09-30T16:52:40.660Z,2.20
2022-09-30T16:55:28.408Z,1.73
2022-09-30T16:58:16.088Z,1.60
2022-09-30T17:01:04.612Z,2.00
2022-09-30T17:03:53.820Z,1.77
2022-09-30T17:06:41.052Z,2.00
2022-09-30T17:09:28.904Z,1.98
2022-09-30T17:12:16.159Z,2.08
2022-09-30T17:15:04.001Z,2.35
2022-09-30T17:17:53.118Z,2.13
2022-09-30T17:20:43.978Z,2.05
2022-09-30T17:23:31.429Z,2.50
2022-09-30T17:26:18.838Z,2.20
2022-09-30T17:29:30.853Z,2.15
2022-09-30T17:32:14.041Z,2.53
2022-09-30T17:35:01.484Z,2.45
2022-09-30T17:37:49.371Z,2.70
2022-09-30T17:40:55.746Z,2.53
2022-09-30T17:43:43.180Z,2.85
2022-09-30T17:46:40.063Z,2.75
2022-09-30T17:49:35.126Z,2.78
2022-09-30T17:52:25.045Z,2.17
2022-09-30T17:55:12.858Z,2.63
2022-09-30T17:58:03.319Z,2.42
2022-09-30T18:00:50.781Z,2.60
2022-09-30T18:03:38.581Z,3.10
2022-09-30T18:06:28.521Z,2.70
2022-09-30T18:09:16.399Z,3.00
2022-09-30T18:12:04.701Z,3.13
2022-09-30T18:14:53.375Z,4.28
2022-09-30T18:17:40.804Z,4.70
2022-09-30T18:20:28.209Z,3.95
2022-09-30T18:23:16.558Z,3.30
2022-09-30T18:26:04.025Z,3.92
2022-09-30T18:28:53.062Z,3.40
2022-09-30T18:31:41.069Z,3.70
2022-09-30T18:34:28.634Z,3.55
2022-09-30T18:37:16.059Z,3.88
2022-09-30T18:40:03.319Z,3.90
2022-09-30T18:42:58.777Z,4.20
2022-09-30T18:45:53.398Z,4.65
2022-09-30T18:48:41.647Z,4.45
2022-09-30T18:51:29.158Z,4.50
2022-09-30T18:54:17.250Z,4.20
2022-09-30T18:57:05.332Z,5.45
2022-09-30T18:59:52.786Z,9.35
2022-09-30T19:02:40.686Z,7.38
2022-09-30T19:05:28.730Z,6.10
2022-09-30T19:08:16.800Z,6.75
2022-09-30T19:11:12.965Z,6.07
2022-09-30T19:14:02.476Z,5.45
2022-09-30T19:16:51.862Z,5.53
2022-09-30T19:19:41.263Z,5.97
2022-09-30T19:22:28.797Z,5.25
2022-09-30T19:25:16.402Z,5.28
2022-09-30T19:28:03.888Z,5.40
2022-09-30T19:30:51.783Z,5.03
2022-09-30T19:33:46.314Z,4.85
2022-09-30T19:36:50.220Z,4.55
2022-09-30T19:39:45.369Z,5.13
2022-09-30T19:42:33.944Z,5.25
2022-09-30T19:45:25.849Z,5.13
2022-09-30T19:48:13.970Z,5.85
2022-09-30T19:51:02.860Z,6.47
2022-09-30T19:54:03.058Z,5.57
2022-09-30T19:56:53.661Z,6.32
2022-09-30T19:59:41.607Z,5.82
2022-09-30T20:02:29.534Z,5.57
2022-09-30T20:05:18.354Z,6.05
2022-09-30T20:08:05.856Z,5.97
2022-09-30T20:10:53.718Z,5.65
2022-09-30T20:13:41.363Z,6.18
2022-09-30T20:16:28.893Z,6.43
2022-09-30T20:19:17.148Z,6.00
2022-09-30T20:22:05.330Z,5.47
2022-09-30T20:24:53.240Z,5.22
2022-09-30T20:27:43.316Z,5.50
2022-09-30T20:30:32.033Z,5.33
2022-09-30T20:33:20.981Z,5.70
2022-09-30T20:36:09.679Z,5.30
2022-09-30T20:38:59.110Z,5.32
2022-09-30T20:41:47.790Z,5.67
2022-09-30T20:44:35.228Z,4.83
2022-09-30T20:47:23.156Z,4.63
2022-09-30T20:50:11.340Z,4.27
2022-09-30T20:52:58.794Z,5.97
2022-09-30T20:55:46.700Z,6.00
2022-09-30T20:58:34.403Z,4.30
2022-09-30T21:01:23.484Z,4.10
2022-09-30T21:04:11.408Z,4.27
2022-09-30T21:07:00.284Z,3.83
2022-09-30T21:09:48.619Z,3.27
2022-09-30T21:12:36.514Z,4.27
2022-09-30T21:15:24.444Z,3.60
2022-09-30T21:18:12.581Z,3.77
2022-09-30T21:21:01.146Z,3.57
2022-09-30T21:23:49.163Z,3.57
2022-09-30T21:26:36.607Z,3.90
2022-09-30T21:29:24.152Z,3.50
2022-09-30T21:32:11.665Z,3.67
2022-09-30T21:34:59.551Z,4.50
2022-09-30T21:37:49.144Z,4.50
2022-09-30T21:40:37.023Z,4.77
2022-09-30T21:43:24.973Z,4.40
2022-09-30T21:46:13.373Z,4.55
2022-09-30T21:49:08.658Z,4.90
2022-09-30T21:51:56.567Z,4.47
2022-09-30T21:54:44.447Z,3.83
2022-09-30T21:57:31.890Z,3.50
2022-09-30T22:00:19.706Z,4.07
2022-09-30T22:03:06.996Z,4.37
2022-09-30T22:05:55.341Z,3.87
2022-09-30T22:08:42.812Z,3.57
2022-09-30T22:11:32.924Z,3.73
2022-09-30T22:14:20.600Z,4.00
2022-09-30T22:17:09.882Z,3.57
2022-09-30T22:19:57.734Z,4.03
2022-09-30T22:22:45.654Z,4.17
2022-09-30T22:25:33.611Z,3.90
2022-09-30T22:28:21.131Z,3.43
2022-09-30T22:31:19.863Z,3.97
2022-09-30T22:34:27.455Z,3.87
2022-09-30T22:37:41.528Z,4.03
2022-09-30T22:40:29.428Z,4.20
2022-09-30T22:43:16.994Z,4.13
2022-09-30T22:46:05.610Z,3.47
2022-09-30T22:48:59.774Z,3.40
2022-09-30T22:51:50.258Z,3.70
2022-09-30T22:54:38.227Z,4.03
2022-09-30T22:57:25.727Z,3.93
2022-09-30T23:00:14.077Z,3.27
2022-09-30T23:03:03.947Z,3.90
2022-09-30T23:05:51.557Z,3.60
2022-09-30T23:08:43.248Z,3.83
2022-09-30T23:11:31.094Z,3.47
2022-09-30T23:14:19.306Z,3.80
2022-09-30T23:17:06.537Z,3.70
2022-09-30T23:19:54.444Z,3.73
2022-09-30T23:22:42.354Z,3.13
2022-09-30T23:25:29.930Z,3.73
2022-09-30T23:28:17.363Z,3.70
2022-09-30T23:31:09.725Z,3.60
2022-09-30T23:33:58.500Z,3.30
2022-09-30T23:36:47.245Z,3.83
2022-09-30T23:39:34.678Z,4.13
2022-09-30T23:42:22.366Z,4.77
2022-09-30T23:45:09.969Z,5.27
2022-09-30T23:47:59.570Z,4.13
2022-09-30T23:50:49.570Z,4.60
2022-09-30T23:53:37.518Z,4.53
2022-09-30T23:56:25.713Z,4.27
2022-09-30T23:59:14.780Z,4.47
